Time;durP1;ratioP1;P1;durP2;ratioP2;P2;SDS_P1;SDS_P2;PMS_P1;PMS_P2;Temp;Humidity;BMP_temperature;BMP_pressure;BME280_temperature;BME280_humidity;BME280_pressure;Samples;Min_cycle;Max_cycle;Signal;HPM_P1;HPM_P2
2023/05/13 00:00:50;;;;;;;;;7.00;7.00;;;;;;;;5013623;28;9114;-81
2023/05/13 00:03:17;;;;;;;;;6.00;6.00;;;;;;;;5014322;28;9139;-82
2023/05/13 00:05:44;;;;;;;;;7.00;7.00;;;;;;;;5010359;28;9020;-82
2023/05/13 00:08:13;;;;;;;;;9.33;6.33;;;;;;;;5010090;28;9092;-82
2023/05/13 00:10:40;;;;;;;;;6.33;6.00;;;;;;;;5010175;28;9094;-81
2023/05/13 00:13:09;;;;;;;;;9.00;9.00;;;;;;;;5009878;28;8938;-82
2023/05/13 00:15:37;;;;;;;;;6.67;6.67;;;;;;;;5010301;28;9132;-81
2023/05/13 00:18:04;;;;;;;;;5.00;5.00;;;;;;;;5010184;28;8991;-82
2023/05/13 00:20:31;;;;;;;;;7.67;7.67;;;;;;;;5010191;28;8959;-82
2023/05/13 00:22:59;;;;;;;;;6.67;6.67;;;;;;;;5010074;28;9219;-82
2023/05/13 00:25:30;;;;;;;;;8.67;8.67;;;;;;;;5009914;28;9797;-82
2023/05/13 00:27:59;;;;;;;;;9.33;7.33;;;;;;;;5009271;28;9290;-83
2023/05/13 00:30:26;;;;;;;;;7.33;7.33;;;;;;;;5011112;28;9076;-81
2023/05/13 00:32:53;;;;;;;;;8.00;8.00;;;;;;;;5010377;28;9703;-82
2023/05/13 00:35:21;;;;;;;;;9.00;9.00;;;;;;;;5009438;28;9814;-82
2023/05/13 00:37:48;;;;;;;;;4.67;4.67;;;;;;;;5009448;28;9189;-82
2023/05/13 00:40:19;;;;;;;;;12.33;11.00;;;;;;;;5017577;28;9249;-82
2023/05/13 00:42:48;;;;;;;;;16.00;10.00;;;;;;;;5009640;28;9335;-82
2023/05/13 00:45:18;;;;;;;;;12.00;12.00;;;;;;;;5009293;28;9172;-82
2023/05/13 00:47:45;;;;;;;;;12.00;12.00;;;;;;;;5009933;28;9385;-82
2023/05/13 00:50:13;;;;;;;;;9.33;8.33;;;;;;;;5019203;28;9380;-83
2023/05/13 00:52:43;;;;;;;;;11.00;11.00;;;;;;;;5007429;28;9028;-82
2023/05/13 00:55:11;;;;;;;;;15.00;13.00;;;;;;;;5041041;28;9113;-82
2023/05/13 00:57:40;;;;;;;;;14.00;12.33;;;;;;;;5009299;28;9271;-80
2023/05/13 01:00:10;;;;;;;;;16.67;16.67;;;;;;;;5010109;28;9110;-80
2023/05/13 01:02:44;;;;;;;;;16.00;16.00;;;;;;;;5011048;28;9254;-79
2023/05/13 01:05:19;;;;;;;;;14.33;14.33;;;;;;;;5009418;28;9252;-81
2023/05/13 01:07:53;;;;;;;;;16.00;15.33;;;;;;;;5007972;28;9203;-81
2023/05/13 01:10:26;;;;;;;;;15.67;15.67;;;;;;;;5008693;28;9479;-82
2023/05/13 01:12:59;;;;;;;;;18.00;16.67;;;;;;;;5009559;28;9376;-81
2023/05/13 01:15:28;;;;;;;;;19.67;19.00;;;;;;;;5008548;28;9344;-82
2023/05/13 01:17:58;;;;;;;;;16.67;16.67;;;;;;;;5008914;28;9520;-81
2023/05/13 01:20:27;;;;;;;;;18.00;18.00;;;;;;;;5009139;28;9389;-81
2023/05/13 01:22:56;;;;;;;;;18.25;18.00;;;;;;;;5009240;28;9504;-80
2023/05/13 01:25:24;;;;;;;;;18.67;17.67;;;;;;;;5010600;28;9430;-81
2023/05/13 01:27:52;;;;;;;;;20.67;18.00;;;;;;;;5010352;28;9472;-82
2023/05/13 01:30:20;;;;;;;;;22.25;18.25;;;;;;;;5009681;28;9414;-81
2023/05/13 01:32:47;;;;;;;;;21.25;17.75;;;;;;;;5010849;28;9524;-81
2023/05/13 01:35:16;;;;;;;;;21.00;20.33;;;;;;;;5009656;28;9444;-78
2023/05/13 01:37:43;;;;;;;;;19.75;18.00;;;;;;;;5009182;28;9326;-79
2023/05/13 01:40:13;;;;;;;;;19.50;17.75;;;;;;;;5009003;28;9586;-81
2023/05/13 01:42:40;;;;;;;;;22.50;22.50;;;;;;;;5009050;28;9879;-80
2023/05/13 01:45:09;;;;;;;;;20.50;20.00;;;;;;;;5009652;28;9517;-80
2023/05/13 01:47:36;;;;;;;;;19.33;19.33;;;;;;;;5008644;28;9609;-79
2023/05/13 01:50:03;;;;;;;;;20.25;19.50;;;;;;;;4997069;28;10288;-80
2023/05/13 01:52:30;;;;;;;;;24.50;23.25;;;;;;;;5008466;28;9560;-80
2023/05/13 01:54:58;;;;;;;;;19.00;19.00;;;;;;;;5012170;28;9813;-80
2023/05/13 01:57:27;;;;;;;;;21.75;21.75;;;;;;;;5013849;28;9529;-80
2023/05/13 01:59:54;;;;;;;;;30.25;25.00;;;;;;;;5014804;28;9572;-80
2023/05/13 02:02:22;;;;;;;;;30.50;26.00;;;;;;;;5012377;28;9676;-79
2023/05/13 02:04:49;;;;;;;;;30.00;27.25;;;;;;;;5012839;28;10674;-79
2023/05/13 02:07:16;;;;;;;;;35.75;32.00;;;;;;;;5012822;28;9859;-80
2023/05/13 02:09:43;;;;;;;;;32.50;29.00;;;;;;;;5012531;28;10104;-81
2023/05/13 02:12:11;;;;;;;;;26.25;26.25;;;;;;;;5012185;28;10570;-80
2023/05/13 02:14:39;;;;;;;;;30.00;28.00;;;;;;;;5012466;28;9789;-82
2023/05/13 02:17:06;;;;;;;;;33.00;31.75;;;;;;;;5012817;28;9937;-82
2023/05/13 02:19:33;;;;;;;;;32.50;29.50;;;;;;;;5012145;28;9957;-83
2023/05/13 02:22:03;;;;;;;;;32.25;31.75;;;;;;;;5012281;28;10071;-82
2023/05/13 02:24:34;;;;;;;;;33.50;31.00;;;;;;;;5009532;28;10175;-82
2023/05/13 02:27:01;;;;;;;;;40.00;34.00;;;;;;;;5013947;28;10082;-82
2023/05/13 02:29:29;;;;;;;;;41.00;34.25;;;;;;;;5013169;28;10308;-82
2023/05/13 02:31:57;;;;;;;;;39.75;36.00;;;;;;;;5011369;28;10426;-82
2023/05/13 02:34:25;;;;;;;;;46.00;38.75;;;;;;;;5011775;28;10400;-83
2023/05/13 02:36:52;;;;;;;;;42.75;35.25;;;;;;;;5004840;28;10360;-83
2023/05/13 02:39:19;;;;;;;;;40.75;35.75;;;;;;;;5011739;28;10311;-82
2023/05/13 02:41:46;;;;;;;;;42.75;37.00;;;;;;;;5012058;28;10296;-83
2023/05/13 02:44:14;;;;;;;;;47.50;39.50;;;;;;;;5011759;28;10444;-82
2023/05/13 02:46:42;;;;;;;;;49.25;40.25;;;;;;;;5012022;28;10463;-83
2023/05/13 02:49:12;;;;;;;;;47.50;41.25;;;;;;;;5012411;28;10435;-82
2023/05/13 02:51:40;;;;;;;;;48.00;40.25;;;;;;;;5012055;28;10378;-82
2023/05/13 02:54:07;;;;;;;;;45.50;39.50;;;;;;;;5012170;28;10529;-82
2023/05/13 02:56:35;;;;;;;;;42.25;37.25;;;;;;;;5012057;28;10636;-81
2023/05/13 02:59:04;;;;;;;;;52.75;44.50;;;;;;;;5012668;28;10510;-82
2023/05/13 03:01:34;;;;;;;;;52.25;42.75;;;;;;;;5010904;28;10540;-82
2023/05/13 03:04:01;;;;;;;;;53.75;44.00;;;;;;;;5011498;28;10627;-82
2023/05/13 03:06:32;;;;;;;;;46.50;40.00;;;;;;;;5011109;28;10710;-82
2023/05/13 03:09:02;;;;;;;;;49.50;42.00;;;;;;;;5011272;28;10473;-81
2023/05/13 03:11:30;;;;;;;;;48.50;41.00;;;;;;;;5011505;28;10677;-82
2023/05/13 03:13:57;;;;;;;;;55.75;45.75;;;;;;;;5011446;28;10813;-81
2023/05/13 03:16:24;;;;;;;;;52.75;45.50;;;;;;;;5011769;28;10892;-81
2023/05/13 03:18:52;;;;;;;;;55.50;45.75;;;;;;;;5012270;28;10775;-82
2023/05/13 03:21:19;;;;;;;;;52.50;44.00;;;;;;;;5012860;28;10817;-82
2023/05/13 03:23:48;;;;;;;;;62.00;47.25;;;;;;;;5012465;28;11006;-81
2023/05/13 03:26:15;;;;;;;;;55.50;45.50;;;;;;;;5012327;28;11165;-80
2023/05/13 03:28:42;;;;;;;;;52.25;42.25;;;;;;;;5011879;28;11035;-81
2023/05/13 03:31:09;;;;;;;;;56.50;47.00;;;;;;;;5019949;28;10969;-82
2023/05/13 03:33:37;;;;;;;;;61.00;48.00;;;;;;;;5011192;28;11011;-82
2023/05/13 03:36:04;;;;;;;;;55.50;46.00;;;;;;;;5010931;28;11165;-82
2023/05/13 03:38:34;;;;;;;;;58.25;45.50;;;;;;;;5010402;28;11155;-83
2023/05/13 03:41:05;;;;;;;;;57.00;46.00;;;;;;;;5010737;28;11167;-82
2023/05/13 03:43:33;;;;;;;;;60.75;50.25;;;;;;;;5010624;28;10999;-83
2023/05/13 03:46:01;;;;;;;;;58.00;48.00;;;;;;;;5010706;28;11246;-82
2023/05/13 03:48:28;;;;;;;;;64.25;51.00;;;;;;;;5009348;28;11211;-82
2023/05/13 03:50:55;;;;;;;;;61.25;49.25;;;;;;;;5009764;28;11242;-82
2023/05/13 03:53:22;;;;;;;;;60.00;48.00;;;;;;;;5010279;28;12150;-82
2023/05/13 03:55:50;;;;;;;;;61.00;47.75;;;;;;;;5017809;28;11196;-81
2023/05/13 03:58:20;;;;;;;;;62.75;51.25;;;;;;;;5003535;28;11359;-82
2023/05/13 04:00:47;;;;;;;;;60.50;49.00;;;;;;;;5013662;28;11295;-82
2023/05/13 04:03:16;;;;;;;;;56.75;47.00;;;;;;;;5033309;28;11242;-81
2023/05/13 04:05:46;;;;;;;;;61.50;49.50;;;;;;;;5029322;28;11087;-82
2023/05/13 04:08:14;;;;;;;;;59.00;49.50;;;;;;;;5029706;28;11269;-82
2023/05/13 04:10:41;;;;;;;;;59.50;49.00;;;;;;;;5029378;28;11558;-82
2023/05/13 04:13:09;;;;;;;;;61.50;49.00;;;;;;;;5029396;28;11327;-82
2023/05/13 04:15:38;;;;;;;;;61.00;50.25;;;;;;;;5028855;28;11021;-81
2023/05/13 04:18:05;;;;;;;;;61.75;50.75;;;;;;;;5028795;28;11982;-81
2023/05/13 04:20:34;;;;;;;;;55.50;45.25;;;;;;;;5029296;28;11087;-82
2023/05/13 04:23:02;;;;;;;;;61.00;50.00;;;;;;;;5021672;28;11159;-82
2023/05/13 04:25:30;;;;;;;;;61.00;49.75;;;;;;;;5030391;28;11168;-81
2023/05/13 04:27:57;;;;;;;;;60.50;49.25;;;;;;;;5029205;28;11029;-81
2023/05/13 04:30:25;;;;;;;;;61.50;50.25;;;;;;;;5028190;28;10948;-83
2023/05/13 04:32:53;;;;;;;;;63.50;51.50;;;;;;;;5029049;28;11194;-83
2023/05/13 04:35:21;;;;;;;;;58.75;47.00;;;;;;;;5028880;28;11269;-83
2023/05/13 04:37:49;;;;;;;;;57.00;47.00;;;;;;;;5028918;28;11182;-82
2023/05/13 04:40:17;;;;;;;;;65.00;51.25;;;;;;;;5028709;28;11192;-82
2023/05/13 04:42:44;;;;;;;;;59.75;49.50;;;;;;;;5028667;28;11284;-82
2023/05/13 04:45:12;;;;;;;;;59.75;48.50;;;;;;;;5029176;28;11310;-82
2023/05/13 04:47:39;;;;;;;;;59.00;49.25;;;;;;;;5029086;28;11970;-82
2023/05/13 04:50:09;;;;;;;;;55.00;44.00;;;;;;;;5028523;28;11169;-82
2023/05/13 04:52:36;;;;;;;;;62.50;49.50;;;;;;;;5028869;28;11563;-81
2023/05/13 04:55:04;;;;;;;;;59.00;47.50;;;;;;;;5029267;28;11347;-81
2023/05/13 04:57:31;;;;;;;;;64.50;51.00;;;;;;;;5028605;28;11325;-82
2023/05/13 05:00:03;;;;;;;;;64.75;52.25;;;;;;;;5028017;28;11683;-81
2023/05/13 05:02:30;;;;;;;;;59.50;48.00;;;;;;;;5028103;28;11551;-82
2023/05/13 05:04:59;;;;;;;;;65.75;50.75;;;;;;;;5028845;28;11269;-81
2023/05/13 05:07:27;;;;;;;;;59.00;49.50;;;;;;;;5029236;28;11349;-82
2023/05/13 05:09:55;;;;;;;;;61.75;50.50;;;;;;;;5029845;28;11686;-82
2023/05/13 05:12:22;;;;;;;;;66.25;52.75;;;;;;;;5029130;28;11565;-82
2023/05/13 05:14:49;;;;;;;;;62.50;52.50;;;;;;;;5029288;28;11575;-82
2023/05/13 05:17:16;;;;;;;;;72.50;54.00;;;;;;;;5031476;28;11548;-84
2023/05/13 05:19:44;;;;;;;;;72.25;57.00;;;;;;;;5028851;28;11529;-84
2023/05/13 05:22:11;;;;;;;;;66.50;54.25;;;;;;;;5030216;28;11553;-84
2023/05/13 05:24:40;;;;;;;;;65.25;52.00;;;;;;;;5030629;28;11629;-83
2023/05/13 05:27:07;;;;;;;;;67.75;54.75;;;;;;;;5027852;28;11574;-84
2023/05/13 05:29:34;;;;;;;;;70.25;57.00;;;;;;;;5026248;28;11551;-82
2023/05/13 05:32:04;;;;;;;;;68.50;55.25;;;;;;;;5018696;28;11501;-83
2023/05/13 05:34:35;;;;;;;;;77.50;59.50;;;;;;;;5028349;28;11606;-82
2023/05/13 05:37:03;;;;;;;;;71.00;57.50;;;;;;;;5027872;28;11585;-83
2023/05/13 05:39:31;;;;;;;;;68.25;55.75;;;;;;;;5028923;28;11623;-84
2023/05/13 05:42:01;;;;;;;;;70.25;57.00;;;;;;;;5026844;28;11570;-83
2023/05/13 05:44:28;;;;;;;;;72.75;60.00;;;;;;;;5028447;28;11621;-84
2023/05/13 05:46:55;;;;;;;;;74.00;59.00;;;;;;;;5028371;28;11702;-83
2023/05/13 05:49:23;;;;;;;;;76.75;63.75;;;;;;;;5027776;28;11599;-83
2023/05/13 05:51:50;;;;;;;;;75.75;60.75;;;;;;;;5029369;28;11709;-83
2023/05/13 05:54:17;;;;;;;;;74.75;60.00;;;;;;;;5028611;28;11567;-83
2023/05/13 05:56:44;;;;;;;;;76.25;64.25;;;;;;;;5027943;28;12458;-83
2023/05/13 05:59:13;;;;;;;;;77.50;66.25;;;;;;;;5027836;28;11607;-82
2023/05/13 06:01:40;;;;;;;;;73.25;61.00;;;;;;;;5028063;28;11489;-82
2023/05/13 06:04:07;;;;;;;;;77.25;65.25;;;;;;;;5027869;28;11703;-83
2023/05/13 06:06:35;;;;;;;;;79.00;68.00;;;;;;;;5028675;28;11762;-83
2023/05/13 06:09:04;;;;;;;;;75.25;61.75;;;;;;;;5027744;28;11534;-84
2023/05/13 06:11:34;;;;;;;;;77.75;65.25;;;;;;;;5028321;28;11620;-84
2023/05/13 06:14:06;;;;;;;;;74.75;64.00;;;;;;;;5025987;28;12423;-80
2023/05/13 06:16:34;;;;;;;;;79.75;67.00;;;;;;;;5027420;28;11709;-76
2023/05/13 06:19:02;;;;;;;;;78.75;65.00;;;;;;;;5027179;28;12334;-79
2023/05/13 06:21:30;;;;;;;;;73.00;58.75;;;;;;;;5028376;28;11565;-80
2023/05/13 06:23:58;;;;;;;;;78.75;63.75;;;;;;;;5027153;28;11708;-77
2023/05/13 06:26:25;;;;;;;;;76.75;63.00;;;;;;;;5027493;28;11718;-78
2023/05/13 06:28:52;;;;;;;;;72.75;60.50;;;;;;;;5037176;28;11567;-77
2023/05/13 06:31:22;;;;;;;;;74.25;58.00;;;;;;;;5027105;28;11588;-81
2023/05/13 06:33:50;;;;;;;;;71.25;56.00;;;;;;;;5027125;28;11594;-77
2023/05/13 06:36:17;;;;;;;;;69.50;55.75;;;;;;;;5027719;28;11694;-83
2023/05/13 06:38:44;;;;;;;;;77.50;62.25;;;;;;;;5026499;28;11676;-77
2023/05/13 06:41:12;;;;;;;;;75.00;64.75;;;;;;;;5030772;28;11667;-78
2023/05/13 06:43:39;;;;;;;;;79.00;63.50;;;;;;;;5031216;28;11566;-78
2023/05/13 06:46:07;;;;;;;;;74.75;59.50;;;;;;;;5030819;28;11569;-78
2023/05/13 06:48:41;;;;;;;;;71.25;56.00;;;;;;;;5030789;28;11620;-78
2023/05/13 06:51:10;;;;;;;;;76.50;61.75;;;;;;;;5030673;28;11334;-78
2023/05/13 06:53:37;;;;;;;;;70.50;55.50;;;;;;;;5030605;28;11384;-79
2023/05/13 06:56:05;;;;;;;;;74.50;58.25;;;;;;;;5030687;28;11073;-77
2023/05/13 06:58:32;;;;;;;;;69.50;56.00;;;;;;;;5022764;28;11668;-77
2023/05/13 07:00:59;;;;;;;;;72.25;58.00;;;;;;;;5031123;28;11197;-80
2023/05/13 07:03:30;;;;;;;;;73.00;59.50;;;;;;;;5031273;28;11179;-80
2023/05/13 07:05:57;;;;;;;;;70.75;57.00;;;;;;;;5030370;28;11267;-78
2023/05/13 07:08:26;;;;;;;;;71.75;56.00;;;;;;;;5033351;28;11265;-81
2023/05/13 07:10:53;;;;;;;;;68.50;55.00;;;;;;;;5034492;28;11039;-78
2023/05/13 07:13:21;;;;;;;;;71.00;55.50;;;;;;;;5030354;28;11084;-81
2023/05/13 07:15:48;;;;;;;;;66.00;50.75;;;;;;;;5030086;28;11216;-80
2023/05/13 07:18:16;;;;;;;;;68.00;54.00;;;;;;;;5030556;28;11035;-79
2023/05/13 07:20:44;;;;;;;;;70.50;55.25;;;;;;;;5030207;28;11174;-76
2023/05/13 07:23:11;;;;;;;;;66.00;51.00;;;;;;;;5030019;28;11032;-78
2023/05/13 07:25:40;;;;;;;;;66.75;54.75;;;;;;;;5029888;28;10705;-78
2023/05/13 07:28:07;;;;;;;;;67.00;53.00;;;;;;;;5029504;28;11042;-78
2023/05/13 07:30:34;;;;;;;;;69.50;52.50;;;;;;;;5033591;28;10638;-75
2023/05/13 07:33:01;;;;;;;;;66.25;54.25;;;;;;;;5031164;28;10935;-74
2023/05/13 07:35:29;;;;;;;;;64.50;53.00;;;;;;;;5029702;28;10770;-75
2023/05/13 07:37:56;;;;;;;;;61.00;51.50;;;;;;;;5029793;28;10771;-78
2023/05/13 07:40:23;;;;;;;;;65.25;53.00;;;;;;;;5024217;28;10849;-76
2023/05/13 07:42:52;;;;;;;;;66.50;54.00;;;;;;;;5029137;28;10645;-72
2023/05/13 07:45:19;;;;;;;;;71.00;55.25;;;;;;;;5029627;28;10732;-77
2023/05/13 07:47:46;;;;;;;;;64.75;51.00;;;;;;;;5029058;28;10485;-78
2023/05/13 07:50:13;;;;;;;;;64.00;51.50;;;;;;;;5030371;28;10455;-81
2023/05/13 07:52:41;;;;;;;;;63.50;50.50;;;;;;;;5029647;28;10662;-80
2023/05/13 07:55:11;;;;;;;;;66.00;51.50;;;;;;;;5029691;28;10617;-80
2023/05/13 07:57:38;;;;;;;;;62.00;48.50;;;;;;;;5029941;28;10507;-80
2023/05/13 08:00:08;;;;;;;;;67.25;54.75;;;;;;;;5029308;28;10476;-80
2023/05/13 08:02:38;;;;;;;;;67.25;53.75;;;;;;;;5029768;28;10602;-80
2023/05/13 08:05:05;;;;;;;;;65.25;52.75;;;;;;;;5030168;28;10644;-80
2023/05/13 08:07:33;;;;;;;;;67.25;52.50;;;;;;;;5029830;28;10448;-81
2023/05/13 08:10:00;;;;;;;;;62.50;49.75;;;;;;;;5029913;28;10668;-81
2023/05/13 08:12:27;;;;;;;;;63.50;50.25;;;;;;;;5029208;28;10227;-80
2023/05/13 08:14:54;;;;;;;;;60.50;50.50;;;;;;;;5029476;28;10316;-81
2023/05/13 08:17:23;;;;;;;;;59.00;46.50;;;;;;;;5030008;28;10378;-78
2023/05/13 08:19:50;;;;;;;;;67.50;55.25;;;;;;;;5029589;28;10419;-79
2023/05/13 08:22:17;;;;;;;;;61.50;48.75;;;;;;;;5028979;28;10666;-80
2023/05/13 08:24:44;;;;;;;;;64.25;50.75;;;;;;;;5029217;28;10367;-81
2023/05/13 08:27:14;;;;;;;;;63.25;51.25;;;;;;;;5029094;28;10356;-81
2023/05/13 08:29:44;;;;;;;;;65.50;51.75;;;;;;;;5029398;28;10233;-81
2023/05/13 08:32:11;;;;;;;;;58.25;47.75;;;;;;;;5027345;28;10275;-81
2023/05/13 08:34:40;;;;;;;;;49.00;41.75;;;;;;;;5029064;28;10217;-79
2023/05/13 08:37:07;;;;;;;;;65.50;54.00;;;;;;;;5028821;28;10177;-79
2023/05/13 08:39:34;;;;;;;;;67.00;53.25;;;;;;;;5029052;28;10254;-78
2023/05/13 08:42:03;;;;;;;;;66.00;52.50;;;;;;;;5028490;28;10228;-79
2023/05/13 08:44:32;;;;;;;;;66.00;51.75;;;;;;;;5029471;28;9980;-78
2023/05/13 08:47:06;;;;;;;;;70.75;54.00;;;;;;;;5029994;28;10131;-79
2023/05/13 08:49:34;;;;;;;;;62.25;49.00;;;;;;;;5029723;28;9948;-79
2023/05/13 08:52:03;;;;;;;;;60.50;51.00;;;;;;;;5029670;28;9968;-79
2023/05/13 08:54:31;;;;;;;;;61.50;50.25;;;;;;;;5028478;28;10027;-79
2023/05/13 08:57:01;;;;;;;;;63.50;51.75;;;;;;;;5028290;28;10260;-79
2023/05/13 08:59:31;;;;;;;;;67.50;54.00;;;;;;;;5028779;28;9827;-79
2023/05/13 09:01:59;;;;;;;;;59.25;49.25;;;;;;;;5027213;28;10502;-79
2023/05/13 09:04:26;;;;;;;;;62.25;50.25;;;;;;;;5030529;28;9782;-79
2023/05/13 09:06:54;;;;;;;;;64.50;51.75;;;;;;;;5027784;28;10481;-80
2023/05/13 09:09:23;;;;;;;;;67.25;53.75;;;;;;;;5027779;28;9726;-78
2023/05/13 09:11:50;;;;;;;;;58.33;47.67;;;;;;;;5027983;28;9878;-79
2023/05/13 09:14:19;;;;;;;;;58.67;45.33;;;;;;;;5028060;28;9509;-79
2023/05/13 09:16:48;;;;;;;;;58.33;48.00;;;;;;;;5028161;28;9316;-79
2023/05/13 09:19:20;;;;;;;;;61.67;49.00;;;;;;;;5027882;28;9413;-80
2023/05/13 09:21:47;;;;;;;;;56.33;46.00;;;;;;;;5028013;28;9207;-80
2023/05/13 09:24:17;;;;;;;;;53.25;45.00;;;;;;;;5027953;28;9007;-79
2023/05/13 09:26:47;;;;;;;;;58.75;48.50;;;;;;;;5028508;28;8879;-79
2023/05/13 09:29:19;;;;;;;;;53.50;44.75;;;;;;;;5028153;28;8958;-80
2023/05/13 09:31:48;;;;;;;;;58.25;47.50;;;;;;;;5028132;28;8913;-79
2023/05/13 09:34:16;;;;;;;;;61.00;48.25;;;;;;;;5024193;28;8851;-80
2023/05/13 09:36:43;;;;;;;;;54.75;45.50;;;;;;;;5028436;28;8845;-80
2023/05/13 09:39:12;;;;;;;;;59.25;47.25;;;;;;;;5027960;28;8866;-80
2023/05/13 09:41:41;;;;;;;;;51.00;42.25;;;;;;;;5028452;28;8905;-80
2023/05/13 09:44:11;;;;;;;;;53.00;44.00;;;;;;;;5027976;28;8927;-79
2023/05/13 09:46:38;;;;;;;;;55.50;45.25;;;;;;;;5027885;28;8877;-79
2023/05/13 09:49:05;;;;;;;;;52.25;42.50;;;;;;;;5028129;28;8970;-79
2023/05/13 09:51:33;;;;;;;;;50.50;43.25;;;;;;;;5028591;28;8867;-84
2023/05/13 09:54:05;;;;;;;;;46.75;40.25;;;;;;;;5028400;28;8914;-83
2023/05/13 09:56:34;;;;;;;;;53.00;44.25;;;;;;;;5026305;28;9022;-84
2023/05/13 09:59:02;;;;;;;;;50.50;39.25;;;;;;;;5032957;28;8990;-84
2023/05/13 10:01:31;;;;;;;;;48.75;41.00;;;;;;;;5026989;28;8852;-79
2023/05/13 10:03:59;;;;;;;;;48.25;40.50;;;;;;;;5027461;28;8856;-79
2023/05/13 10:06:27;;;;;;;;;51.50;41.25;;;;;;;;5028039;28;8864;-75
2023/05/13 10:08:56;;;;;;;;;47.00;38.00;;;;;;;;5027129;28;8844;-78
2023/05/13 10:11:27;;;;;;;;;45.75;38.25;;;;;;;;5027897;28;8840;-80
2023/05/13 10:13:59;;;;;;;;;43.00;37.75;;;;;;;;5027096;28;8882;-78
2023/05/13 10:16:29;;;;;;;;;45.00;38.00;;;;;;;;5032184;28;9419;-79
2023/05/13 10:18:58;;;;;;;;;44.75;38.00;;;;;;;;5031630;28;8867;-81
2023/05/13 10:21:26;;;;;;;;;48.50;38.00;;;;;;;;5032066;28;8840;-80
2023/05/13 10:23:54;;;;;;;;;43.75;36.50;;;;;;;;5031258;28;8859;-80
2023/05/13 10:26:21;;;;;;;;;39.25;34.25;;;;;;;;5032223;28;9007;-82
2023/05/13 10:28:49;;;;;;;;;36.50;31.50;;;;;;;;5031455;28;8983;-80
2023/05/13 10:31:16;;;;;;;;;38.00;34.00;;;;;;;;5031580;28;8788;-80
2023/05/13 10:33:44;;;;;;;;;39.50;35.50;;;;;;;;5032640;28;8914;-79
2023/05/13 10:36:24;;;;;;;;;40.20;34.40;;;;;;;;5033317;28;8864;-79
2023/05/13 10:39:18;;;;;;;;;39.20;35.20;;;;;;;;5032132;28;8905;-80
2023/05/13 10:42:24;;;;;;;;;31.40;30.40;;;;;;;;5032199;28;8971;-85
2023/05/13 10:44:55;;;;;;;;;35.00;30.40;;;;;;;;5027439;28;8973;-82
2023/05/13 10:47:22;;;;;;;;;36.80;31.80;;;;;;;;5032114;28;8887;-79
2023/05/13 10:49:52;;;;;;;;;30.60;29.60;;;;;;;;5031152;28;8864;-84
2023/05/13 10:52:20;;;;;;;;;31.40;29.40;;;;;;;;5031551;28;8836;-85
2023/05/13 10:55:00;;;;;;;;;30.60;30.00;;;;;;;;5030762;28;8884;-79
2023/05/13 10:57:29;;;;;;;;;33.40;31.20;;;;;;;;5031190;28;8891;-80
2023/05/13 11:00:15;;;;;;;;;32.00;31.00;;;;;;;;5030650;28;8871;-83
2023/05/13 11:02:42;;;;;;;;;29.60;28.00;;;;;;;;5031106;28;8963;-82
2023/05/13 11:05:13;;;;;;;;;33.80;29.60;;;;;;;;5031140;28;9642;-81
2023/05/13 11:07:41;;;;;;;;;20.00;16.20;;;;;;;;5030737;28;8852;-79
2023/05/13 11:10:25;;;;;;;;;25.20;25.20;;;;;;;;5030564;28;8967;-80
2023/05/13 11:13:08;;;;;;;;;28.20;26.60;;;;;;;;5018600;28;8889;-81
2023/05/13 11:15:45;;;;;;;;;29.40;27.60;;;;;;;;5030933;28;8890;-81
2023/05/13 11:18:16;;;;;;;;;25.40;23.20;;;;;;;;5030589;28;8864;-80
2023/05/13 11:20:48;;;;;;;;;27.00;27.00;;;;;;;;5030801;28;8853;-76
2023/05/13 11:23:21;;;;;;;;;26.00;24.20;;;;;;;;5029801;28;8858;-77
2023/05/13 11:26:12;;;;;;;;;30.60;28.80;;;;;;;;5020284;28;8844;-78
2023/05/13 11:29:00;;;;;;;;;24.20;23.40;;;;;;;;5027726;28;8875;-80
2023/05/13 11:31:28;;;;;;;;;27.00;24.20;;;;;;;;5029338;28;8950;-86
2023/05/13 11:34:09;;;;;;;;;27.00;27.00;;;;;;;;5030355;28;8872;-81
2023/05/13 11:36:37;;;;;;;;;27.80;26.00;;;;;;;;5026199;28;9738;-80
2023/05/13 11:39:12;;;;;;;;;27.60;26.00;;;;;;;;5029350;28;8949;-77
2023/05/13 11:41:42;;;;;;;;;23.20;22.00;;;;;;;;5030479;28;8871;-77
2023/05/13 11:44:10;;;;;;;;;24.20;22.40;;;;;;;;5031529;28;8867;-82
2023/05/13 11:46:37;;;;;;;;;22.60;20.80;;;;;;;;5030187;28;8886;-81
2023/05/13 11:49:04;;;;;;;;;15.20;15.20;;;;;;;;5030021;28;8867;-80
2023/05/13 11:51:34;;;;;;;;;25.20;22.80;;;;;;;;5029957;28;8868;-79
2023/05/13 11:54:02;;;;;;;;;24.20;20.60;;;;;;;;5029636;28;8892;-79
2023/05/13 11:56:31;;;;;;;;;22.80;22.40;;;;;;;;5029948;28;8868;-82
2023/05/13 11:59:15;;;;;;;;;20.60;19.20;;;;;;;;5030005;28;8865;-82
2023/05/13 12:01:43;;;;;;;;;35.80;32.60;;;;;;;;5029667;28;8956;-78
2023/05/13 12:04:10;;;;;;;;;22.80;20.80;;;;;;;;5030282;28;8960;-81
2023/05/13 12:06:45;;;;;;;;;21.80;21.80;;;;;;;;5030162;28;8880;-81
2023/05/13 12:09:12;;;;;;;;;21.60;18.40;;;;;;;;5029807;28;8867;-80
2023/05/13 12:11:41;;;;;;;;;15.80;14.00;;;;;;;;5029918;28;8868;-79
2023/05/13 12:14:09;;;;;;;;;17.40;16.80;;;;;;;;5029941;28;8921;-80
2023/05/13 12:16:36;;;;;;;;;20.00;18.00;;;;;;;;5030046;28;8985;-78
2023/05/13 12:19:07;;;;;;;;;20.20;19.60;;;;;;;;5030426;28;9329;-79
2023/05/13 12:21:34;;;;;;;;;17.40;17.00;;;;;;;;5031281;28;8848;-79
2023/05/13 12:24:01;;;;;;;;;16.00;16.00;;;;;;;;5030886;28;8883;-79
2023/05/13 12:26:28;;;;;;;;;18.80;17.60;;;;;;;;5030549;28;8878;-77
2023/05/13 12:29:00;;;;;;;;;18.00;17.20;;;;;;;;5029687;28;8894;-80
2023/05/13 12:31:27;;;;;;;;;18.40;16.80;;;;;;;;5028748;28;8810;-81
2023/05/13 12:33:54;;;;;;;;;14.40;14.40;;;;;;;;5029410;28;8877;-79
2023/05/13 12:36:24;;;;;;;;;14.20;14.20;;;;;;;;5029032;28;8853;-81
2023/05/13 12:38:59;;;;;;;;;13.00;13.00;;;;;;;;5034711;28;8903;-79
2023/05/13 12:41:28;;;;;;;;;13.40;13.40;;;;;;;;5029239;28;8867;-79
2023/05/13 12:44:00;;;;;;;;;19.20;16.60;;;;;;;;5028116;28;9650;-79
2023/05/13 12:46:28;;;;;;;;;18.00;16.60;;;;;;;;5028810;28;8994;-79
2023/05/13 12:48:56;;;;;;;;;18.80;16.40;;;;;;;;5028733;28;9697;-80
2023/05/13 12:51:24;;;;;;;;;17.60;15.60;;;;;;;;5028537;28;8856;-79
2023/05/13 12:53:53;;;;;;;;;13.60;13.60;;;;;;;;5028461;28;8846;-77
2023/05/13 12:56:21;;;;;;;;;15.60;15.60;;;;;;;;5028214;28;8879;-78
2023/05/13 12:58:51;;;;;;;;;13.20;13.00;;;;;;;;5028444;28;8854;-78
2023/05/13 13:01:19;;;;;;;;;12.20;10.80;;;;;;;;5027981;28;8800;-79
2023/05/13 13:03:46;;;;;;;;;15.20;15.20;;;;;;;;5028434;28;8890;-77
2023/05/13 13:06:14;;;;;;;;;16.40;16.40;;;;;;;;5027776;28;8887;-79
2023/05/13 13:08:41;;;;;;;;;12.80;12.80;;;;;;;;5028335;28;8898;-80
2023/05/13 13:11:09;;;;;;;;;13.40;13.00;;;;;;;;5027873;28;9654;-79
2023/05/13 13:13:36;;;;;;;;;15.00;14.00;;;;;;;;5028478;28;8852;-76
2023/05/13 13:16:05;;;;;;;;;15.00;13.60;;;;;;;;5016827;28;9021;-78
2023/05/13 13:18:33;;;;;;;;;15.80;15.80;;;;;;;;5028040;28;8852;-76
2023/05/13 13:21:01;;;;;;;;;17.20;16.00;;;;;;;;5027707;28;8868;-77
2023/05/13 13:23:28;;;;;;;;;17.60;16.60;;;;;;;;5027225;28;8890;-77
2023/05/13 13:25:57;;;;;;;;;17.00;17.00;;;;;;;;5027689;28;9626;-77
2023/05/13 13:28:24;;;;;;;;;17.00;16.80;;;;;;;;5027706;28;8884;-78
2023/05/13 13:30:51;;;;;;;;;15.40;15.40;;;;;;;;5027058;28;9571;-78
2023/05/13 13:33:19;;;;;;;;;22.40;21.00;;;;;;;;5027575;28;8978;-79
2023/05/13 13:35:48;;;;;;;;;18.80;18.80;;;;;;;;5028117;28;8852;-77
2023/05/13 13:38:15;;;;;;;;;15.20;14.80;;;;;;;;5027573;28;8844;-78
2023/05/13 13:40:43;;;;;;;;;18.80;18.00;;;;;;;;5028362;28;8860;-77
2023/05/13 13:43:10;;;;;;;;;13.00;13.00;;;;;;;;5028176;28;8876;-82
2023/05/13 13:45:37;;;;;;;;;17.60;17.60;;;;;;;;5028391;28;9044;-80
2023/05/13 13:48:05;;;;;;;;;19.80;19.80;;;;;;;;5027456;28;8900;-77
2023/05/13 13:50:32;;;;;;;;;19.60;19.60;;;;;;;;5026663;28;8877;-76
2023/05/13 13:53:01;;;;;;;;;22.40;19.40;;;;;;;;5027545;28;8957;-77
2023/05/13 13:55:28;;;;;;;;;22.00;21.60;;;;;;;;5027560;28;8902;-77
2023/05/13 13:57:55;;;;;;;;;16.60;15.00;;;;;;;;5027089;28;8861;-76
2023/05/13 14:00:23;;;;;;;;;18.00;16.80;;;;;;;;5027071;28;10962;-77
2023/05/13 14:02:50;;;;;;;;;18.80;17.20;;;;;;;;5027735;28;9004;-77
2023/05/13 14:05:18;;;;;;;;;21.00;20.60;;;;;;;;5028740;28;8898;-82
2023/05/13 14:07:47;;;;;;;;;21.20;21.20;;;;;;;;5028800;28;8884;-79
2023/05/13 14:10:15;;;;;;;;;22.20;22.20;;;;;;;;5029919;28;8929;-77
2023/05/13 14:12:43;;;;;;;;;21.40;21.40;;;;;;;;5028485;28;9011;-79
2023/05/13 14:15:11;;;;;;;;;19.80;18.60;;;;;;;;5028555;28;8870;-79
2023/05/13 14:17:38;;;;;;;;;19.40;19.40;;;;;;;;5027435;28;8859;-77
2023/05/13 14:20:06;;;;;;;;;19.00;19.00;;;;;;;;5027201;28;8865;-78
2023/05/13 14:22:34;;;;;;;;;18.00;18.00;;;;;;;;5027242;28;9325;-79
2023/05/13 14:25:01;;;;;;;;;23.60;20.60;;;;;;;;5027116;28;8863;-81
2023/05/13 14:27:29;;;;;;;;;20.40;20.40;;;;;;;;5027491;28;8842;-79
2023/05/13 14:29:57;;;;;;;;;19.60;19.00;;;;;;;;5027257;28;9004;-79
2023/05/13 14:32:24;;;;;;;;;21.40;21.20;;;;;;;;5026850;28;8824;-81
2023/05/13 14:34:51;;;;;;;;;17.60;17.60;;;;;;;;5027238;28;8968;-79